^^
Saratoga-Weather Station Historical Data
Daily Summary for July 12, 2021 Units:  Both    English   Metric
Daily Weekly Monthly Yearly Custom
  High: Low: Average:
Temperature: 43.3 °F /  6.3 °C 35.4 °F /  1.9 °C 38.3 °F /  3.5 °C
Dew Point: 42.1 °F /  5.6 °C 32.2 °F /  0.1 °C 36.3 °F /  2.4 °C
Humidity: 95% 86% 93%
Wind Speed: 13mph /  20.9km/h - 3.9mph /  6.3km/h
Wind Gust: 16mph /  25.7km/h - -
Wind- - West
Pressure: 30.1 in /  1018.3 hPa 29.8 in /  1009.5 hPa -
Precipitation: 0.83 in /  21.1 mm    
Historical Graphs
 
 
Tabular Data for July 12, 2021
Time Temperature Dew Point Pressure Wind Wind Speed Wind Gust Humidity Rainfall Rate (Hourly) solar
00:02 35.4 °F /  1.9 °C 32.2 °F /  0.1 °C 30.1in /  1018.3hPa NNE 2.9mph /  4.7km/h 3mph /  4.8km/h 88% 0in /  0.0mm 0 W/m2
00:07 35.4 °F /  1.9 °C 32.2 °F /  0.1 °C 30.1in /  1018.3hPa NNW 0.9mph /  1.4km/h 9mph /  14.5km/h 88% 0in /  0.0mm 0 W/m2
00:12 35.4 °F /  1.9 °C 32.2 °F /  0.1 °C 30.1in /  1018.3hPa West 2mph /  3.2km/h 7mph /  11.3km/h 88% 0in /  0.0mm 0 W/m2
00:17 35.4 °F /  1.9 °C 32.2 °F /  0.1 °C 30.1in /  1018.0hPa WNW 6.9mph /  11.1km/h 9mph /  14.5km/h 88% 0in /  0.0mm 0 W/m2
00:22 35.4 °F /  1.9 °C 32.2 °F /  0.1 °C 30.1in /  1018.0hPa Calm   3mph /  4.8km/h 88% 0in /  0.0mm 0 W/m2
00:27 35.4 °F /  1.9 °C 32.2 °F /  0.1 °C 30.1in /  1018.0hPa WNW 6mph /  9.7km/h 8mph /  12.9km/h 88% 0in /  0.0mm 0 W/m2
00:32 35.6 °F /  2 °C 32.7 °F /  0.4 °C 30.1in /  1018.0hPa SW 2mph /  3.2km/h 14mph /  22.5km/h 89% 0in /  0.0mm 0 W/m2
00:37 35.8 °F /  2.1 °C 32.5 °F /  0.3 °C 30.1in /  1018.0hPa WSW 2.9mph /  4.7km/h 3mph /  4.8km/h 88% 0in /  0.0mm 0 W/m2
00:42 35.8 °F /  2.1 °C 32.9 °F /  0.5 °C 30.1in /  1017.6hPa SE 4mph /  6.4km/h 14mph /  22.5km/h 89% 0in /  0.0mm 0 W/m2
00:47 35.8 °F /  2.1 °C 32.9 °F /  0.5 °C 30.1in /  1017.6hPa NW 0.9mph /  1.4km/h 5mph /  8km/h 89% 0in /  0.0mm 0 W/m2
00:52 35.8 °F /  2.1 °C 32.9 °F /  0.5 °C 30.1in /  1017.6hPa WNW 2.9mph /  4.7km/h 11mph /  17.7km/h 89% 0in /  0.0mm 0 W/m2
00:57 36 °F /  2.2 °C 33.1 °F /  0.6 °C 30.1in /  1017.6hPa WNW 4.9mph /  7.9km/h 8mph /  12.9km/h 89% 0in /  0.0mm 0 W/m2
01:02 36 °F /  2.2 °C 33.1 °F /  0.6 °C 30in /  1017.3hPa West 13mph /  20.9km/h 13mph /  20.9km/h 89% 0in /  0.0mm 0 W/m2
01:07 36 °F /  2.2 °C 33.1 °F /  0.6 °C 30in /  1017.3hPa NW 2.9mph /  4.7km/h 5mph /  8km/h 89% 0in /  0.0mm 0 W/m2
01:12 36 °F /  2.2 °C 33.1 °F /  0.6 °C 30in /  1017.3hPa NE 2mph /  3.2km/h 2mph /  3.2km/h 89% 0in /  0.0mm 0 W/m2
01:17 36.1 °F /  2.3 °C 33.3 °F /  0.7 °C 30in /  1017.3hPa South 0.9mph /  1.4km/h 3mph /  4.8km/h 89% 0in /  0.0mm 0 W/m2
01:22 36.1 °F /  2.3 °C 33.3 °F /  0.7 °C 30in /  1017.3hPa North 2mph /  3.2km/h 4mph /  6.4km/h 89% 0in /  0.0mm 0 W/m2
01:27 36.1 °F /  2.3 °C 33.3 °F /  0.7 °C 30in /  1016.9hPa SW 2.9mph /  4.7km/h 6mph /  9.7km/h 89% 0in /  0.0mm 0 W/m2
01:32 36.1 °F /  2.3 °C 33.3 °F /  0.7 °C 30in /  1016.9hPa West 4mph /  6.4km/h 6mph /  9.7km/h 89% 0in /  0.0mm 0 W/m2
01:37 36.1 °F /  2.3 °C 33.3 °F /  0.7 °C 30in /  1016.9hPa NNW 6mph /  9.7km/h 6mph /  9.7km/h 89% 0in /  0.0mm 0 W/m2
01:42 36.1 °F /  2.3 °C 33.4 °F /  0.8 °C 30in /  1016.9hPa NNW 2mph /  3.2km/h 5mph /  8km/h 90% 0in /  0.0mm 0 W/m2
01:47 36.1 °F /  2.3 °C 33.4 °F /  0.8 °C 30in /  1016.9hPa WNW 2.9mph /  4.7km/h 7mph /  11.3km/h 90% 0in /  0.0mm 0 W/m2
01:52 36.1 °F /  2.3 °C 33.4 °F /  0.8 °C 30in /  1016.6hPa WNW 2mph /  3.2km/h 3mph /  4.8km/h 90% 0in /  0.0mm 0 W/m2
01:57 36.1 °F /  2.3 °C 33.8 °F /  1 °C 30in /  1016.9hPa WNW 0.9mph /  1.4km/h 9mph /  14.5km/h 91% 0in /  0.0mm 0 W/m2
02:02 36.1 °F /  2.3 °C 33.8 °F /  1 °C 30in /  1016.6hPa NNW 8.1mph /  13km/h 8mph /  12.9km/h 91% 0in /  0.0mm 0 W/m2
02:07 36 °F /  2.2 °C 33.8 °F /  1 °C 30in /  1016.6hPa West 2.9mph /  4.7km/h 9mph /  14.5km/h 92% 0in /  0.0mm 0 W/m2
02:12 36 °F /  2.2 °C 33.8 °F /  1 °C 30in /  1016.6hPa SW 4mph /  6.4km/h 9mph /  14.5km/h 92% 0in /  0.0mm 0 W/m2
02:17 36 °F /  2.2 °C 33.8 °F /  1 °C 30in /  1016.6hPa NNW 2mph /  3.2km/h 7mph /  11.3km/h 92% 0in /  0.0mm 0 W/m2
02:22 36 °F /  2.2 °C 34.2 °F /  1.2 °C 30in /  1016.6hPa NNW 2mph /  3.2km/h 7mph /  11.3km/h 93% 0in /  0.0mm 0 W/m2
02:27 36 °F /  2.2 °C 34.2 °F /  1.2 °C 30in /  1016.6hPa West 2mph /  3.2km/h 7mph /  11.3km/h 93% 0in /  0.0mm 0 W/m2
02:32 36 °F /  2.2 °C 34.2 °F /  1.2 °C 30in /  1016.3hPa WNW 0.9mph /  1.4km/h 4mph /  6.4km/h 93% 0in /  0.0mm 0 W/m2
02:37 36 °F /  2.2 °C 34.2 °F /  1.2 °C 30in /  1016.3hPa West 2.9mph /  4.7km/h 8mph /  12.9km/h 93% 0in /  0.0mm 0 W/m2
02:42 36.1 °F /  2.3 °C 34.5 °F /  1.4 °C 30in /  1016.3hPa NW 2mph /  3.2km/h 7mph /  11.3km/h 94% 0in /  0.0mm 0 W/m2
02:47 36.1 °F /  2.3 °C 34.5 °F /  1.4 °C 30in /  1016.3hPa WNW 4mph /  6.4km/h 7mph /  11.3km/h 94% 0in /  0.0mm 0 W/m2
02:52 36.1 °F /  2.3 °C 34.5 °F /  1.4 °C 30in /  1016.3hPa NW 2.9mph /  4.7km/h 9mph /  14.5km/h 94% 0in /  0.0mm 0 W/m2
02:57 36.3 °F /  2.4 °C 34.7 °F /  1.5 °C 30in /  1016.3hPa WSW 4.9mph /  7.9km/h 6mph /  9.7km/h 94% 0in /  0.0mm 0 W/m2
03:02 36.3 °F /  2.4 °C 34.7 °F /  1.5 °C 30in /  1016.3hPa WSW 6.9mph /  11.1km/h 11mph /  17.7km/h 94% 0in /  0.0mm 0 W/m2
03:07 36.3 °F /  2.4 °C 34.7 °F /  1.5 °C 30in /  1016.3hPa NW 2mph /  3.2km/h 6mph /  9.7km/h 94% 0.01in /  0.2mm 0 W/m2
03:12 36.3 °F /  2.4 °C 34.7 °F /  1.5 °C 30in /  1016.3hPa North 2mph /  3.2km/h 11mph /  17.7km/h 94% 0.01in /  0.2mm 0 W/m2
03:17 36.3 °F /  2.4 °C 34.7 °F /  1.5 °C 30in /  1015.9hPa WNW 0.9mph /  1.4km/h 4mph /  6.4km/h 94% 0.01in /  0.2mm 0 W/m2
03:22 36.3 °F /  2.4 °C 34.7 °F /  1.5 °C 30in /  1015.9hPa NNE 2mph /  3.2km/h 4mph /  6.4km/h 94% 0.01in /  0.2mm 0 W/m2
03:27 36.3 °F /  2.4 °C 34.7 °F /  1.5 °C 30in /  1015.9hPa NW 2.9mph /  4.7km/h 7mph /  11.3km/h 94% 0.02in /  0.5mm 0 W/m2
03:32 36.3 °F /  2.4 °C 34.7 °F /  1.5 °C 30in /  1015.6hPa WSW 4mph /  6.4km/h 9mph /  14.5km/h 94% 0.02in /  0.5mm 0 W/m2
03:37 36.3 °F /  2.4 °C 34.7 °F /  1.5 °C 30in /  1015.6hPa West 0.9mph /  1.4km/h 5mph /  8km/h 94% 0.02in /  0.5mm 0 W/m2
03:42 36.3 °F /  2.4 °C 34.7 °F /  1.5 °C 30in /  1015.6hPa North 2.9mph /  4.7km/h 11mph /  17.7km/h 94% 0.02in /  0.5mm 0 W/m2
03:47 36.5 °F /  2.5 °C 34.9 °F /  1.6 °C 30in /  1015.6hPa WSW 4.9mph /  7.9km/h 9mph /  14.5km/h 94% 0.02in /  0.5mm 0 W/m2
03:52 36.7 °F /  2.6 °C 35.1 °F /  1.7 °C 30in /  1015.2hPa South 4mph /  6.4km/h 9mph /  14.5km/h 94% 0.02in /  0.5mm 0 W/m2
03:57 36.7 °F /  2.6 °C 35.1 °F /  1.7 °C 30in /  1015.2hPa WNW 2mph /  3.2km/h 9mph /  14.5km/h 94% 0.02in /  0.5mm 0 W/m2
04:02 36.7 °F /  2.6 °C 35.1 °F /  1.7 °C 30in /  1015.2hPa WNW 2.9mph /  4.7km/h 12mph /  19.3km/h 94% 0.02in /  0.5mm 0 W/m2
04:08 36.7 °F /  2.6 °C 35.1 °F /  1.7 °C 30in /  1015.2hPa West 4mph /  6.4km/h 7mph /  11.3km/h 94% 0.01in /  0.2mm 0 W/m2
04:13 36.7 °F /  2.6 °C 35.1 °F /  1.7 °C 30in /  1014.9hPa West 2.9mph /  4.7km/h 8mph /  12.9km/h 94% 0.01in /  0.2mm 0 W/m2
04:18 36.7 °F /  2.6 °C 35.1 °F /  1.7 °C 30in /  1014.9hPa West 8.1mph /  13km/h 14mph /  22.5km/h 94% 0.01in /  0.2mm 0 W/m2
04:23 36.7 °F /  2.6 °C 35.1 °F /  1.7 °C 30in /  1014.6hPa WSW 4mph /  6.4km/h 8mph /  12.9km/h 94% 0.01in /  0.2mm 0 W/m2
04:28 36.7 °F /  2.6 °C 35.1 °F /  1.7 °C 30in /  1014.6hPa NW 4.9mph /  7.9km/h 8mph /  12.9km/h 94% 0in /  0.0mm 0 W/m2
04:33 36.9 °F /  2.7 °C 35.2 °F /  1.8 °C 30in /  1014.6hPa SW 0.9mph /  1.4km/h 7mph /  11.3km/h 94% 0in /  0.0mm 0 W/m2
04:38 36.9 °F /  2.7 °C 35.2 °F /  1.8 °C 30in /  1014.6hPa WNW 4.9mph /  7.9km/h 7mph /  11.3km/h 94% 0in /  0.0mm 0 W/m2
04:43 36.9 °F /  2.7 °C 35.2 °F /  1.8 °C 30in /  1014.2hPa WNW 10.1mph /  16.3km/h 13mph /  20.9km/h 94% 0in /  0.0mm 0 W/m2
04:48 36.9 °F /  2.7 °C 35.2 °F /  1.8 °C 30in /  1014.2hPa WNW 2mph /  3.2km/h 12mph /  19.3km/h 94% 0in /  0.0mm 0 W/m2
04:53 36.9 °F /  2.7 °C 35.2 °F /  1.8 °C 30in /  1014.2hPa NNW 4mph /  6.4km/h 7mph /  11.3km/h 94% 0in /  0.0mm 0 W/m2
04:58 36.9 °F /  2.7 °C 35.2 °F /  1.8 °C 30in /  1014.2hPa NW 4mph /  6.4km/h 6mph /  9.7km/h 94% 0in /  0.0mm 0 W/m2
05:03 36.9 °F /  2.7 °C 35.2 °F /  1.8 °C 30in /  1014.2hPa NW 2.9mph /  4.7km/h 12mph /  19.3km/h 94% 0in /  0.0mm 0 W/m2
05:08 36.9 °F /  2.7 °C 35.2 °F /  1.8 °C 29.9in /  1013.9hPa West 2mph /  3.2km/h 9mph /  14.5km/h 94% 0in /  0.0mm 0 W/m2
05:13 37 °F /  2.8 °C 35.8 °F /  2.1 °C 29.9in /  1013.9hPa West 4mph /  6.4km/h 14mph /  22.5km/h 95% 0.01in /  0.2mm 0 W/m2
05:18 37 °F /  2.8 °C 35.4 °F /  1.9 °C 29.9in /  1013.9hPa NW 4mph /  6.4km/h 10mph /  16.1km/h 94% 0.02in /  0.5mm 0 W/m2
05:23 36.9 °F /  2.7 °C 35.2 °F /  1.8 °C 29.9in /  1013.5hPa WSW 6.9mph /  11.1km/h 11mph /  17.7km/h 94% 0.02in /  0.5mm 0 W/m2
05:28 36.9 °F /  2.7 °C 35.2 °F /  1.8 °C 29.9in /  1013.5hPa West 4mph /  6.4km/h 9mph /  14.5km/h 94% 0.05in /  1.3mm 0 W/m2
05:33 36.9 °F /  2.7 °C 35.2 °F /  1.8 °C 29.9in /  1013.5hPa NW 2mph /  3.2km/h 12mph /  19.3km/h 94% 0.07in /  1.8mm 0 W/m2
05:38 36.9 °F /  2.7 °C 35.2 °F /  1.8 °C 29.9in /  1013.5hPa WSW 2.9mph /  4.7km/h 14mph /  22.5km/h 94% 0.09in /  2.3mm 0 W/m2
05:43 36.9 °F /  2.7 °C 35.2 °F /  1.8 °C 29.9in /  1013.5hPa NW 6.9mph /  11.1km/h 8mph /  12.9km/h 94% 0.1in /  2.5mm 0 W/m2
05:48 36.9 °F /  2.7 °C 35.2 °F /  1.8 °C 29.9in /  1013.5hPa South 6.9mph /  11.1km/h 9mph /  14.5km/h 94% 0.11in /  2.8mm 0 W/m2
05:53 36.9 °F /  2.7 °C 35.2 °F /  1.8 °C 29.9in /  1013.5hPa NNW 0.9mph /  1.4km/h 8mph /  12.9km/h 94% 0.12in /  3.0mm 0 W/m2
05:58 36.9 °F /  2.7 °C 35.2 °F /  1.8 °C 29.9in /  1013.2hPa SSE 2mph /  3.2km/h 7mph /  11.3km/h 94% 0.13in /  3.3mm 0 W/m2
06:03 36.9 °F /  2.7 °C 35.2 °F /  1.8 °C 29.9in /  1013.2hPa NW 10.1mph /  16.3km/h 15mph /  24.1km/h 94% 0.14in /  3.6mm 0 W/m2
06:08 36.9 °F /  2.7 °C 35.2 °F /  1.8 °C 29.9in /  1012.9hPa NW 0.9mph /  1.4km/h 12mph /  19.3km/h 94% 0.15in /  3.8mm 0 W/m2
06:13 36.9 °F /  2.7 °C 35.2 °F /  1.8 °C 29.9in /  1012.9hPa SW 2.9mph /  4.7km/h 10mph /  16.1km/h 94% 0.15in /  3.8mm 0 W/m2
06:18 36.9 °F /  2.7 °C 35.2 °F /  1.8 °C 29.9in /  1012.9hPa West 4mph /  6.4km/h 15mph /  24.1km/h 94% 0.15in /  3.8mm 0 W/m2
06:23 36.7 °F /  2.6 °C 35.1 °F /  1.7 °C 29.9in /  1012.9hPa NNE 2.9mph /  4.7km/h 9mph /  14.5km/h 94% 0.15in /  3.8mm 0 W/m2
06:28 36.7 °F /  2.6 °C 35.1 °F /  1.7 °C 29.9in /  1012.9hPa West 0.9mph /  1.4km/h 8mph /  12.9km/h 94% 0.13in /  3.3mm 0 W/m2
06:33 36.7 °F /  2.6 °C 35.1 °F /  1.7 °C 29.9in /  1012.9hPa West 2.9mph /  4.7km/h 9mph /  14.5km/h 94% 0.12in /  3.0mm 0 W/m2
06:38 36.9 °F /  2.7 °C 35.2 °F /  1.8 °C 29.9in /  1012.9hPa NNW 8.1mph /  13km/h 8mph /  12.9km/h 94% 0.11in /  2.8mm 0 W/m2
06:43 36.9 °F /  2.7 °C 35.2 °F /  1.8 °C 29.9in /  1012.9hPa WNW 2mph /  3.2km/h 8mph /  12.9km/h 94% 0.1in /  2.5mm 0 W/m2
06:48 36.7 °F /  2.6 °C 35.1 °F /  1.7 °C 29.9in /  1012.5hPa Calm   3mph /  4.8km/h 94% 0.1in /  2.5mm 0 W/m2
06:53 36.7 °F /  2.6 °C 35.1 °F /  1.7 °C 29.9in /  1012.5hPa West 6mph /  9.7km/h 8mph /  12.9km/h 94% 0.1in /  2.5mm 0 W/m2
06:58 36.7 °F /  2.6 °C 35.1 °F /  1.7 °C 29.9in /  1012.5hPa NE 2mph /  3.2km/h 9mph /  14.5km/h 94% 0.1in /  2.5mm 0 W/m2
07:03 36.7 °F /  2.6 °C 35.1 °F /  1.7 °C 29.9in /  1012.5hPa NNW 2mph /  3.2km/h 8mph /  12.9km/h 94% 0.09in /  2.3mm 0 W/m2
07:08 36.7 °F /  2.6 °C 35.1 °F /  1.7 °C 29.9in /  1012.5hPa NNW 2.9mph /  4.7km/h 10mph /  16.1km/h 94% 0.09in /  2.3mm 0 W/m2
07:13 36.7 °F /  2.6 °C 35.1 °F /  1.7 °C 29.9in /  1012.5hPa West 4mph /  6.4km/h 5mph /  8km/h 94% 0.09in /  2.3mm 0 W/m2
07:18 36.7 °F /  2.6 °C 35.1 °F /  1.7 °C 29.9in /  1012.5hPa WNW 2.9mph /  4.7km/h 10mph /  16.1km/h 94% 0.1in /  2.5mm 0 W/m2
07:23 36.7 °F /  2.6 °C 35.1 °F /  1.7 °C 29.9in /  1012.5hPa ENE 2mph /  3.2km/h 12mph /  19.3km/h 94% 0.1in /  2.5mm 0 W/m2
07:28 36.7 °F /  2.6 °C 35.1 °F /  1.7 °C 29.9in /  1012.5hPa WNW 2mph /  3.2km/h 14mph /  22.5km/h 94% 0.11in /  2.8mm 0 W/m2
07:33 36.7 °F /  2.6 °C 35.1 °F /  1.7 °C 29.9in /  1012.2hPa NW 6mph /  9.7km/h 13mph /  20.9km/h 94% 0.11in /  2.8mm 0 W/m2
07:38 36.7 °F /  2.6 °C 35.1 °F /  1.7 °C 29.9in /  1012.2hPa WSW 8.9mph /  14.3km/h 14mph /  22.5km/h 94% 0.11in /  2.8mm 0 W/m2
07:43 36.7 °F /  2.6 °C 35.1 °F /  1.7 °C 29.9in /  1011.9hPa NW 0.9mph /  1.4km/h 8mph /  12.9km/h 94% 0.12in /  3.0mm 0 W/m2
07:48 36.7 °F /  2.6 °C 35.1 °F /  1.7 °C 29.9in /  1012.2hPa NE 4.9mph /  7.9km/h 13mph /  20.9km/h 94% 0.12in /  3.0mm 0 W/m2
07:53 36.7 °F /  2.6 °C 35.1 °F /  1.7 °C 29.9in /  1012.2hPa NW 8.9mph /  14.3km/h 9mph /  14.5km/h 94% 0.13in /  3.3mm 0 W/m2
07:58 36.7 °F /  2.6 °C 35.1 °F /  1.7 °C 29.9in /  1012.2hPa NW 4mph /  6.4km/h 10mph /  16.1km/h 94% 0.13in /  3.3mm 0 W/m2
08:03 36.7 °F /  2.6 °C 35.1 °F /  1.7 °C 29.9in /  1011.9hPa West 2.9mph /  4.7km/h 8mph /  12.9km/h 94% 0.13in /  3.3mm 0 W/m2
08:08 36.7 °F /  2.6 °C 35.1 °F /  1.7 °C 29.9in /  1011.9hPa WSW 2mph /  3.2km/h 9mph /  14.5km/h 94% 0.14in /  3.6mm 0 W/m2
08:13 36.7 °F /  2.6 °C 35.1 °F /  1.7 °C 29.9in /  1012.2hPa NW 2mph /  3.2km/h 5mph /  8km/h 94% 0.14in /  3.6mm 0 W/m2
08:18 36.7 °F /  2.6 °C 35.1 °F /  1.7 °C 29.9in /  1011.9hPa WNW 8.9mph /  14.3km/h 12mph /  19.3km/h 94% 0.14in /  3.6mm 0 W/m2
08:23 36.7 °F /  2.6 °C 35.1 °F /  1.7 °C 29.9in /  1011.9hPa WNW 0.9mph /  1.4km/h 9mph /  14.5km/h 94% 0.14in /  3.6mm 0 W/m2
08:28 36.7 °F /  2.6 °C 35.1 °F /  1.7 °C 29.9in /  1011.9hPa NNW 2.9mph /  4.7km/h 7mph /  11.3km/h 94% 0.14in /  3.6mm 0 W/m2
08:33 36.7 °F /  2.6 °C 35.1 °F /  1.7 °C 29.9in /  1011.9hPa SW 2mph /  3.2km/h 7mph /  11.3km/h 94% 0.14in /  3.6mm 0 W/m2
08:38 36.5 °F /  2.5 °C 34.9 °F /  1.6 °C 29.9in /  1011.9hPa West 8.1mph /  13km/h 13mph /  20.9km/h 94% 0.15in /  3.8mm 0 W/m2
08:43 36.3 °F /  2.4 °C 34.7 °F /  1.5 °C 29.9in /  1011.9hPa WNW 8.9mph /  14.3km/h 9mph /  14.5km/h 94% 0.14in /  3.6mm 0 W/m2
08:48 36.3 °F /  2.4 °C 34.7 °F /  1.5 °C 29.9in /  1011.5hPa WNW 4.9mph /  7.9km/h 13mph /  20.9km/h 94% 0.15in /  3.8mm 0 W/m2
08:53 36.3 °F /  2.4 °C 34.7 °F /  1.5 °C 29.9in /  1011.5hPa WSW 4mph /  6.4km/h 11mph /  17.7km/h 94% 0.15in /  3.8mm 0 W/m2
08:59 36.3 °F /  2.4 °C 34.7 °F /  1.5 °C 29.9in /  1011.5hPa West 2.9mph /  4.7km/h 6mph /  9.7km/h 94% 0.15in /  3.8mm 0 W/m2
09:04 36.1 °F /  2.3 °C 34.5 °F /  1.4 °C 29.9in /  1011.2hPa NW 10.1mph /  16.3km/h 14mph /  22.5km/h 94% 0.15in /  3.8mm 0 W/m2
09:09 36.1 °F /  2.3 °C 34.5 °F /  1.4 °C 29.9in /  1011.2hPa WNW 6.9mph /  11.1km/h 13mph /  20.9km/h 94% 0.14in /  3.6mm 5 W/m2
09:14 36.1 °F /  2.3 °C 34.5 °F /  1.4 °C 29.9in /  1011.2hPa NNE 2.9mph /  4.7km/h 9mph /  14.5km/h 94% 0.14in /  3.6mm 5 W/m2
09:19 36.1 °F /  2.3 °C 34.5 °F /  1.4 °C 29.9in /  1011.2hPa WNW 2.9mph /  4.7km/h 7mph /  11.3km/h 94% 0.14in /  3.6mm 7 W/m2
09:24 36 °F /  2.2 °C 34.3 °F /  1.3 °C 29.9in /  1011.2hPa West 4mph /  6.4km/h 16mph /  25.7km/h 94% 0.14in /  3.6mm 9 W/m2
09:29 36 °F /  2.2 °C 34.3 °F /  1.3 °C 29.9in /  1011.2hPa West 6mph /  9.7km/h 10mph /  16.1km/h 94% 0.13in /  3.3mm 11 W/m2
09:34 36 °F /  2.2 °C 34.3 °F /  1.3 °C 29.9in /  1011.2hPa WNW 2.9mph /  4.7km/h 9mph /  14.5km/h 94% 0.13in /  3.3mm 12 W/m2
09:39 36 °F /  2.2 °C 34.3 °F /  1.3 °C 29.9in /  1011.2hPa NNW 0.9mph /  1.4km/h 8mph /  12.9km/h 94% 0.13in /  3.3mm 16 W/m2
09:44 36 °F /  2.2 °C 34.3 °F /  1.3 °C 29.9in /  1011.2hPa NNW 4.9mph /  7.9km/h 11mph /  17.7km/h 94% 0.12in /  3.0mm 18 W/m2
09:49 36 °F /  2.2 °C 34.3 °F /  1.3 °C 29.9in /  1011.2hPa WNW 2mph /  3.2km/h 9mph /  14.5km/h 94% 0.12in /  3.0mm 18 W/m2
09:54 36.1 °F /  2.3 °C 34.5 °F /  1.4 °C 29.9in /  1011.2hPa West 11mph /  17.7km/h 12mph /  19.3km/h 94% 0.1in /  2.5mm 21 W/m2
09:59 36.1 °F /  2.3 °C 34.5 °F /  1.4 °C 29.9in /  1011.2hPa WNW 2.9mph /  4.7km/h 8mph /  12.9km/h 94% 0.1in /  2.5mm 21 W/m2
10:04 36.1 °F /  2.3 °C 34.5 °F /  1.4 °C 29.9in /  1011.2hPa NW 2.9mph /  4.7km/h 12mph /  19.3km/h 94% 0.09in /  2.3mm 23 W/m2
10:09 36.3 °F /  2.4 °C 34.7 °F /  1.5 °C 29.9in /  1011.2hPa NW 10.1mph /  16.3km/h 10mph /  16.1km/h 94% 0.09in /  2.3mm 26 W/m2
10:14 36.3 °F /  2.4 °C 34.7 °F /  1.5 °C 29.9in /  1011.5hPa West 2mph /  3.2km/h 7mph /  11.3km/h 94% 0.09in /  2.3mm 35 W/m2
10:19 36.3 °F /  2.4 °C 34.7 °F /  1.5 °C 29.9in /  1011.2hPa West 2.9mph /  4.7km/h 10mph /  16.1km/h 94% 0.07in /  1.8mm 39 W/m2
10:24 36.3 °F /  2.4 °C 34.7 °F /  1.5 °C 29.9in /  1011.2hPa NNW 6mph /  9.7km/h 10mph /  16.1km/h 94% 0.06in /  1.5mm 39 W/m2
10:29 36.7 °F /  2.6 °C 35.1 °F /  1.7 °C 29.9in /  1011.2hPa NW 4.9mph /  7.9km/h 6mph /  9.7km/h 94% 0.06in /  1.5mm 32 W/m2
10:34 36.7 °F /  2.6 °C 35.1 °F /  1.7 °C 29.9in /  1011.2hPa WNW 2mph /  3.2km/h 12mph /  19.3km/h 94% 0.06in /  1.5mm 35 W/m2
10:39 36.7 °F /  2.6 °C 35.1 °F /  1.7 °C 29.9in /  1011.2hPa WSW 8.9mph /  14.3km/h 15mph /  24.1km/h 94% 0.05in /  1.3mm 32 W/m2
10:44 36.9 °F /  2.7 °C 35.2 °F /  1.8 °C 29.9in /  1011.2hPa NNW 4mph /  6.4km/h 7mph /  11.3km/h 94% 0.05in /  1.3mm 26 W/m2
10:49 36.9 °F /  2.7 °C 35.2 °F /  1.8 °C 29.9in /  1011.2hPa WNW 6.9mph /  11.1km/h 15mph /  24.1km/h 94% 0.04in /  1.0mm 28 W/m2
10:54 36.9 °F /  2.7 °C 35.2 °F /  1.8 °C 29.9in /  1011.2hPa NNE 4.9mph /  7.9km/h 5mph /  8km/h 94% 0.04in /  1.0mm 35 W/m2
10:59 36.9 °F /  2.7 °C 35.2 °F /  1.8 °C 29.9in /  1011.2hPa WNW 2.9mph /  4.7km/h 9mph /  14.5km/h 94% 0.04in /  1.0mm 39 W/m2
11:04 36.9 °F /  2.7 °C 35.2 °F /  1.8 °C 29.9in /  1011.2hPa West 6.9mph /  11.1km/h 12mph /  19.3km/h 94% 0.03in /  0.8mm 53 W/m2
11:09 36.9 °F /  2.7 °C 35.2 °F /  1.8 °C 29.9in /  1011.2hPa WNW 2.9mph /  4.7km/h 11mph /  17.7km/h 94% 0.03in /  0.8mm 60 W/m2
11:14 37 °F /  2.8 °C 35.4 °F /  1.9 °C 29.9in /  1010.8hPa West 2mph /  3.2km/h 12mph /  19.3km/h 94% 0.03in /  0.8mm 70 W/m2
11:19 37 °F /  2.8 °C 35.4 °F /  1.9 °C 29.9in /  1011.2hPa SE 2mph /  3.2km/h 7mph /  11.3km/h 94% 0.03in /  0.8mm 49 W/m2
11:24 37.2 °F /  2.9 °C 35.6 °F /  2 °C 29.9in /  1010.8hPa SSE 10.1mph /  16.3km/h 11mph /  17.7km/h 94% 0.04in /  1.0mm 53 W/m2
11:29 37.2 °F /  2.9 °C 35.6 °F /  2 °C 29.9in /  1010.8hPa West 2.9mph /  4.7km/h 9mph /  14.5km/h 94% 0.03in /  0.8mm 47 W/m2
11:34 37.4 °F /  3 °C 35.8 °F /  2.1 °C 29.9in /  1010.8hPa WNW 6.9mph /  11.1km/h 8mph /  12.9km/h 94% 0.04in /  1.0mm 51 W/m2
11:39 37.6 °F /  3.1 °C 36 °F /  2.2 °C 29.9in /  1010.8hPa SW 0.9mph /  1.4km/h 4mph /  6.4km/h 94% 0.04in /  1.0mm 63 W/m2
11:44 37.8 °F /  3.2 °C 36.5 °F /  2.5 °C 29.9in /  1010.8hPa NW 2mph /  3.2km/h 6mph /  9.7km/h 95% 0.04in /  1.0mm 54 W/m2
11:49 37.9 °F /  3.3 °C 36.7 °F /  2.6 °C 29.9in /  1010.8hPa NNW 4.9mph /  7.9km/h 9mph /  14.5km/h 95% 0.04in /  1.0mm 53 W/m2
11:54 37.9 °F /  3.3 °C 36.7 °F /  2.6 °C 29.8in /  1010.5hPa WNW 6.9mph /  11.1km/h 9mph /  14.5km/h 95% 0.05in /  1.3mm 60 W/m2
11:59 38.1 °F /  3.4 °C 36.9 °F /  2.7 °C 29.8in /  1010.5hPa West 2.9mph /  4.7km/h 7mph /  11.3km/h 95% 0.04in /  1.0mm 67 W/m2
12:04 38.5 °F /  3.6 °C 37.2 °F /  2.9 °C 29.8in /  1010.5hPa NW 6mph /  9.7km/h 12mph /  19.3km/h 95% 0.05in /  1.3mm 62 W/m2
12:09 38.7 °F /  3.7 °C 37.4 °F /  3 °C 29.8in /  1010.5hPa West 0.9mph /  1.4km/h 7mph /  11.3km/h 95% 0.05in /  1.3mm 54 W/m2
12:14 38.8 °F /  3.8 °C 37.6 °F /  3.1 °C 29.8in /  1010.5hPa NNW 6mph /  9.7km/h 10mph /  16.1km/h 95% 0.05in /  1.3mm 60 W/m2
12:19 38.8 °F /  3.8 °C 37.6 °F /  3.1 °C 29.8in /  1010.2hPa Calm   4mph /  6.4km/h 95% 0.05in /  1.3mm 60 W/m2
12:24 39 °F /  3.9 °C 37.8 °F /  3.2 °C 29.8in /  1010.2hPa NW 4mph /  6.4km/h 7mph /  11.3km/h 95% 0.05in /  1.3mm 69 W/m2
12:29 39.2 °F /  4 °C 37.9 °F /  3.3 °C 29.8in /  1010.2hPa NNW 6mph /  9.7km/h 8mph /  12.9km/h 95% 0.05in /  1.3mm 67 W/m2
12:34 39.4 °F /  4.1 °C 38.1 °F /  3.4 °C 29.8in /  1010.2hPa WNW 2mph /  3.2km/h 9mph /  14.5km/h 95% 0.05in /  1.3mm 65 W/m2
12:39 39.6 °F /  4.2 °C 38.3 °F /  3.5 °C 29.8in /  1010.2hPa WNW 2.9mph /  4.7km/h 8mph /  12.9km/h 95% 0.05in /  1.3mm 72 W/m2
12:44 39.6 °F /  4.2 °C 38.3 °F /  3.5 °C 29.8in /  1010.2hPa WNW 0.9mph /  1.4km/h 16mph /  25.7km/h 95% 0.04in /  1.0mm 62 W/m2
12:49 39.7 °F /  4.3 °C 38.5 °F /  3.6 °C 29.8in /  1010.2hPa WSW 2.9mph /  4.7km/h 9mph /  14.5km/h 95% 0.05in /  1.3mm 51 W/m2
12:54 39.7 °F /  4.3 °C 38.5 °F /  3.6 °C 29.8in /  1010.2hPa WNW 2mph /  3.2km/h 16mph /  25.7km/h 95% 0.04in /  1.0mm 62 W/m2
12:59 39.9 °F /  4.4 °C 38.7 °F /  3.7 °C 29.8in /  1010.2hPa WSW 4mph /  6.4km/h 10mph /  16.1km/h 95% 0.04in /  1.0mm 47 W/m2
13:04 39.9 °F /  4.4 °C 38.7 °F /  3.7 °C 29.8in /  1009.8hPa West 6mph /  9.7km/h 8mph /  12.9km/h 95% 0.03in /  0.8mm 37 W/m2
13:09 40.1 °F /  4.5 °C 38.8 °F /  3.8 °C 29.8in /  1009.8hPa West 2mph /  3.2km/h 8mph /  12.9km/h 95% 0.04in /  1.0mm 54 W/m2
13:14 40.3 °F /  4.6 °C 39 °F /  3.9 °C 29.8in /  1009.8hPa WSW 8.1mph /  13km/h 11mph /  17.7km/h 95% 0.04in /  1.0mm 56 W/m2
13:19 40.5 °F /  4.7 °C 39.2 °F /  4 °C 29.8in /  1009.8hPa West 11mph /  17.7km/h 11mph /  17.7km/h 95% 0.05in /  1.3mm 67 W/m2
13:24 40.5 °F /  4.7 °C 39.2 °F /  4 °C 29.8in /  1009.8hPa West 6.9mph /  11.1km/h 11mph /  17.7km/h 95% 0.04in /  1.0mm 67 W/m2
13:29 40.6 °F /  4.8 °C 39.4 °F /  4.1 °C 29.8in /  1009.8hPa West 6mph /  9.7km/h 14mph /  22.5km/h 95% 0.05in /  1.3mm 72 W/m2
13:34 40.6 °F /  4.8 °C 39.4 °F /  4.1 °C 29.8in /  1009.5hPa NW 2mph /  3.2km/h 9mph /  14.5km/h 95% 0.04in /  1.0mm 49 W/m2
13:39 40.6 °F /  4.8 °C 39.4 °F /  4.1 °C 29.8in /  1009.5hPa West 6mph /  9.7km/h 10mph /  16.1km/h 95% 0.04in /  1.0mm 47 W/m2
13:44 40.8 °F /  4.9 °C 39.6 °F /  4.2 °C 29.8in /  1009.5hPa WNW 4mph /  6.4km/h 9mph /  14.5km/h 95% 0.04in /  1.0mm 58 W/m2
13:49 40.8 °F /  4.9 °C 39.6 °F /  4.2 °C 29.8in /  1009.5hPa NW 6mph /  9.7km/h 13mph /  20.9km/h 95% 0.04in /  1.0mm 37 W/m2
13:54 40.8 °F /  4.9 °C 39.6 °F /  4.2 °C 29.8in /  1009.5hPa WNW 6.9mph /  11.1km/h 11mph /  17.7km/h 95% 0.04in /  1.0mm 40 W/m2
13:59 41 °F /  5 °C 39.7 °F /  4.3 °C 29.8in /  1009.5hPa NW 8.9mph /  14.3km/h 13mph /  20.9km/h 95% 0.04in /  1.0mm 33 W/m2
14:04 41.2 °F /  5.1 °C 39.9 °F /  4.4 °C 29.8in /  1009.5hPa West 2.9mph /  4.7km/h 7mph /  11.3km/h 95% 0.05in /  1.3mm 32 W/m2
14:09 41.2 °F /  5.1 °C 39.9 °F /  4.4 °C 29.8in /  1009.5hPa WNW 6mph /  9.7km/h 7mph /  11.3km/h 95% 0.04in /  1.0mm 35 W/m2
14:14 41.2 °F /  5.1 °C 39.9 °F /  4.4 °C 29.8in /  1009.5hPa West 2mph /  3.2km/h 9mph /  14.5km/h 95% 0.03in /  0.8mm 30 W/m2
14:19 41.2 °F /  5.1 °C 39.9 °F /  4.4 °C 29.8in /  1009.5hPa WNW 4mph /  6.4km/h 8mph /  12.9km/h 95% 0.02in /  0.5mm 26 W/m2
14:24 41.4 °F /  5.2 °C 40.1 °F /  4.5 °C 29.8in /  1009.5hPa West 6.9mph /  11.1km/h 14mph /  22.5km/h 95% 0.03in /  0.8mm 19 W/m2
14:29 41.4 °F /  5.2 °C 40.1 °F /  4.5 °C 29.8in /  1009.5hPa WSW 4mph /  6.4km/h 10mph /  16.1km/h 95% 0.02in /  0.5mm 25 W/m2
14:35 41.4 °F /  5.2 °C 40.1 °F /  4.5 °C 29.8in /  1009.5hPa West 6mph /  9.7km/h 11mph /  17.7km/h 95% 0.02in /  0.5mm 49 W/m2
14:40 41.5 °F /  5.3 °C 40.3 °F /  4.6 °C 29.8in /  1009.5hPa WNW 2.9mph /  4.7km/h 11mph /  17.7km/h 95% 0.02in /  0.5mm 37 W/m2
14:45 41.5 °F /  5.3 °C 40.3 °F /  4.6 °C 29.8in /  1009.5hPa NW 4.9mph /  7.9km/h 12mph /  19.3km/h 95% 0.02in /  0.5mm 28 W/m2
14:50 41.7 °F /  5.4 °C 40.5 °F /  4.7 °C 29.8in /  1009.5hPa NW 2.9mph /  4.7km/h 9mph /  14.5km/h 95% 0.02in /  0.5mm 40 W/m2
14:55 41.7 °F /  5.4 °C 40.5 °F /  4.7 °C 29.8in /  1009.5hPa WNW 8.9mph /  14.3km/h 12mph /  19.3km/h 95% 0.02in /  0.5mm 40 W/m2
15:00 41.9 °F /  5.5 °C 40.6 °F /  4.8 °C 29.8in /  1009.5hPa WSW 4.9mph /  7.9km/h 9mph /  14.5km/h 95% 0.02in /  0.5mm 46 W/m2
15:05 42.1 °F /  5.6 °C 40.8 °F /  4.9 °C 29.8in /  1009.8hPa West 4mph /  6.4km/h 11mph /  17.7km/h 95% 0.02in /  0.5mm 67 W/m2
15:10 42.1 °F /  5.6 °C 40.8 °F /  4.9 °C 29.8in /  1009.8hPa WNW 2.9mph /  4.7km/h 8mph /  12.9km/h 95% 0.02in /  0.5mm 58 W/m2
15:15 42.3 °F /  5.7 °C 41 °F /  5 °C 29.8in /  1009.8hPa WSW 4mph /  6.4km/h 8mph /  12.9km/h 95% 0.02in /  0.5mm 56 W/m2
15:20 42.3 °F /  5.7 °C 41 °F /  5 °C 29.8in /  1009.8hPa WNW 4.9mph /  7.9km/h 7mph /  11.3km/h 95% 0.02in /  0.5mm 54 W/m2
15:25 42.4 °F /  5.8 °C 41.2 °F /  5.1 °C 29.8in /  1009.8hPa WNW 6.9mph /  11.1km/h 9mph /  14.5km/h 95% 0.01in /  0.2mm 53 W/m2
15:30 42.4 °F /  5.8 °C 41.2 °F /  5.1 °C 29.8in /  1009.8hPa WNW 0.9mph /  1.4km/h 7mph /  11.3km/h 95% 0.01in /  0.2mm 42 W/m2
15:35 42.6 °F /  5.9 °C 41.4 °F /  5.2 °C 29.8in /  1010.2hPa West 4mph /  6.4km/h 7mph /  11.3km/h 95% 0.01in /  0.2mm 26 W/m2
15:40 42.6 °F /  5.9 °C 41.4 °F /  5.2 °C 29.8in /  1010.2hPa WNW 4.9mph /  7.9km/h 8mph /  12.9km/h 95% 0.01in /  0.2mm 25 W/m2
15:45 42.6 °F /  5.9 °C 41.4 °F /  5.2 °C 29.8in /  1010.2hPa West 2.9mph /  4.7km/h 8mph /  12.9km/h 95% 0.01in /  0.2mm 25 W/m2
15:50 42.6 °F /  5.9 °C 41.4 °F /  5.2 °C 29.8in /  1010.2hPa WSW 4.9mph /  7.9km/h 6mph /  9.7km/h 95% 0.02in /  0.5mm 25 W/m2
15:55 42.6 °F /  5.9 °C 41.4 °F /  5.2 °C 29.8in /  1010.2hPa WSW 6.9mph /  11.1km/h 9mph /  14.5km/h 95% 0.02in /  0.5mm 28 W/m2
16:00 42.6 °F /  5.9 °C 41.4 °F /  5.2 °C 29.8in /  1010.2hPa WSW 4mph /  6.4km/h 7mph /  11.3km/h 95% 0.02in /  0.5mm 30 W/m2
16:05 42.6 °F /  5.9 °C 41.4 °F /  5.2 °C 29.8in /  1010.5hPa WNW 6.9mph /  11.1km/h 9mph /  14.5km/h 95% 0.01in /  0.2mm 21 W/m2
16:10 42.8 °F /  6 °C 41.5 °F /  5.3 °C 29.8in /  1010.5hPa West 6mph /  9.7km/h 9mph /  14.5km/h 95% 0.01in /  0.2mm 18 W/m2
16:15 42.8 °F /  6 °C 41.5 °F /  5.3 °C 29.8in /  1010.2hPa SW 6.9mph /  11.1km/h 9mph /  14.5km/h 95% 0.02in /  0.5mm 16 W/m2
16:20 42.8 °F /  6 °C 41.5 °F /  5.3 °C 29.8in /  1010.2hPa WSW 8.1mph /  13km/h 8mph /  12.9km/h 95% 0.02in /  0.5mm 18 W/m2
16:25 43 °F /  6.1 °C 41.7 °F /  5.4 °C 29.8in /  1010.5hPa WSW 4mph /  6.4km/h 8mph /  12.9km/h 95% 0.02in /  0.5mm 12 W/m2
16:30 43 °F /  6.1 °C 41.7 °F /  5.4 °C 29.8in /  1010.5hPa WSW 2.9mph /  4.7km/h 7mph /  11.3km/h 95% 0.02in /  0.5mm 14 W/m2
16:35 43 °F /  6.1 °C 41.7 °F /  5.4 °C 29.8in /  1010.5hPa WNW 4.9mph /  7.9km/h 10mph /  16.1km/h 95% 0.02in /  0.5mm 9 W/m2
16:40 43 °F /  6.1 °C 41.7 °F /  5.4 °C 29.8in /  1010.5hPa West 8.1mph /  13km/h 10mph /  16.1km/h 95% 0.02in /  0.5mm 5 W/m2
16:45 43 °F /  6.1 °C 41.7 °F /  5.4 °C 29.9in /  1010.8hPa West 6mph /  9.7km/h 7mph /  11.3km/h 95% 0.02in /  0.5mm 5 W/m2
16:50 43.2 °F /  6.2 °C 41.9 °F /  5.5 °C 29.9in /  1010.8hPa WNW 4.9mph /  7.9km/h 10mph /  16.1km/h 95% 0.02in /  0.5mm 0 W/m2
16:55 43.2 °F /  6.2 °C 41.9 °F /  5.5 °C 29.9in /  1010.8hPa West 4mph /  6.4km/h 10mph /  16.1km/h 95% 0.02in /  0.5mm 0 W/m2
17:00 43.2 °F /  6.2 °C 41.9 °F /  5.5 °C 29.9in /  1011.2hPa West 8.1mph /  13km/h 9mph /  14.5km/h 95% 0.02in /  0.5mm 0 W/m2
17:05 43.3 °F /  6.3 °C 42.1 °F /  5.6 °C 29.9in /  1011.2hPa West 4mph /  6.4km/h 8mph /  12.9km/h 95% 0.02in /  0.5mm 0 W/m2
17:10 43.2 °F /  6.2 °C 41.9 °F /  5.5 °C 29.9in /  1011.2hPa WNW 4.9mph /  7.9km/h 9mph /  14.5km/h 95% 0.02in /  0.5mm 0 W/m2
17:15 43.3 °F /  6.3 °C 42.1 °F /  5.6 °C 29.9in /  1011.2hPa WNW 2.9mph /  4.7km/h 6mph /  9.7km/h 95% 0.01in /  0.2mm 0 W/m2
17:20 43.2 °F /  6.2 °C 41.5 °F /  5.3 °C 29.9in /  1011.5hPa WNW 4.9mph /  7.9km/h 7mph /  11.3km/h 94% 0.01in /  0.2mm 0 W/m2
17:25 43.3 °F /  6.3 °C 41.7 °F /  5.4 °C 29.9in /  1011.5hPa WNW 2.9mph /  4.7km/h 6mph /  9.7km/h 94% 0in /  0.0mm 0 W/m2
17:30 43.2 °F /  6.2 °C 41.4 °F /  5.2 °C 29.9in /  1011.9hPa WNW 4mph /  6.4km/h 7mph /  11.3km/h 93% 0in /  0.0mm 0 W/m2
17:35 43.2 °F /  6.2 °C 41.4 °F /  5.2 °C 29.9in /  1011.9hPa West 2.9mph /  4.7km/h 7mph /  11.3km/h 93% 0in /  0.0mm 0 W/m2
17:40 43 °F /  6.1 °C 41.2 °F /  5.1 °C 29.9in /  1011.9hPa West 2.9mph /  4.7km/h 7mph /  11.3km/h 93% 0in /  0.0mm 0 W/m2
17:45 43 °F /  6.1 °C 41.2 °F /  5.1 °C 29.9in /  1011.9hPa WNW 4.9mph /  7.9km/h 8mph /  12.9km/h 93% 0in /  0.0mm 0 W/m2
17:50 43 °F /  6.1 °C 41.2 °F /  5.1 °C 29.9in /  1011.9hPa West 6mph /  9.7km/h 6mph /  9.7km/h 93% 0in /  0.0mm 0 W/m2
17:55 43 °F /  6.1 °C 41.2 °F /  5.1 °C 29.9in /  1012.2hPa NW 2.9mph /  4.7km/h 6mph /  9.7km/h 93% 0in /  0.0mm 0 W/m2
18:00 42.8 °F /  6 °C 41 °F /  5 °C 29.9in /  1012.2hPa WNW 2mph /  3.2km/h 6mph /  9.7km/h 93% 0in /  0.0mm 0 W/m2
18:05 42.6 °F /  5.9 °C 40.8 °F /  4.9 °C 29.9in /  1012.2hPa West 2mph /  3.2km/h 3mph /  4.8km/h 93% 0in /  0.0mm 0 W/m2
18:10 42.4 °F /  5.8 °C 40.6 °F /  4.8 °C 29.9in /  1012.2hPa WNW 2mph /  3.2km/h 4mph /  6.4km/h 93% 0in /  0.0mm 0 W/m2
18:15 42.3 °F /  5.7 °C 40.5 °F /  4.7 °C 29.9in /  1012.2hPa WNW 0.9mph /  1.4km/h 3mph /  4.8km/h 93% 0in /  0.0mm 0 W/m2
18:20 42.1 °F /  5.6 °C 40.3 °F /  4.6 °C 29.9in /  1012.5hPa WNW 0.9mph /  1.4km/h 3mph /  4.8km/h 93% 0in /  0.0mm 0 W/m2
18:25 41.7 °F /  5.4 °C 39.9 °F /  4.4 °C 29.9in /  1012.5hPa West 2mph /  3.2km/h 3mph /  4.8km/h 93% 0in /  0.0mm 0 W/m2
18:30 41.5 °F /  5.3 °C 39.9 °F /  4.4 °C 29.9in /  1012.5hPa WNW 2mph /  3.2km/h 3mph /  4.8km/h 94% 0in /  0.0mm 0 W/m2
18:35 41.5 °F /  5.3 °C 39.9 °F /  4.4 °C 29.9in /  1012.9hPa WNW 2mph /  3.2km/h 3mph /  4.8km/h 94% 0in /  0.0mm 0 W/m2
18:40 41.4 °F /  5.2 °C 39.7 °F /  4.3 °C 29.9in /  1012.9hPa WNW 2.9mph /  4.7km/h 3mph /  4.8km/h 94% 0in /  0.0mm 0 W/m2
18:45 41.2 °F /  5.1 °C 39.6 °F /  4.2 °C 29.9in /  1012.9hPa WSW 2.9mph /  4.7km/h 4mph /  6.4km/h 94% 0in /  0.0mm 0 W/m2
18:50 41.2 °F /  5.1 °C 39.6 °F /  4.2 °C 29.9in /  1013.2hPa WNW 2mph /  3.2km/h 4mph /  6.4km/h 94% 0in /  0.0mm 0 W/m2
18:55 41.2 °F /  5.1 °C 39.6 °F /  4.2 °C 29.9in /  1013.2hPa WSW 4mph /  6.4km/h 7mph /  11.3km/h 94% 0in /  0.0mm 0 W/m2
19:01 41.2 °F /  5.1 °C 39.6 °F /  4.2 °C 29.9in /  1013.2hPa WNW 4.9mph /  7.9km/h 5mph /  8km/h 94% 0in /  0.0mm 0 W/m2
19:06 41.2 °F /  5.1 °C 39.4 °F /  4.1 °C 29.9in /  1013.2hPa West 2.9mph /  4.7km/h 5mph /  8km/h 93% 0in /  0.0mm 0 W/m2
19:11 41.2 °F /  5.1 °C 39 °F /  3.9 °C 29.9in /  1013.5hPa WNW 2mph /  3.2km/h 6mph /  9.7km/h 92% 0in /  0.0mm 0 W/m2
19:16 41.2 °F /  5.1 °C 39 °F /  3.9 °C 29.9in /  1013.5hPa WNW 4mph /  6.4km/h 6mph /  9.7km/h 92% 0in /  0.0mm 0 W/m2
19:21 41.2 °F /  5.1 °C 39 °F /  3.9 °C 29.9in /  1013.5hPa West 2.9mph /  4.7km/h 4mph /  6.4km/h 92% 0in /  0.0mm 0 W/m2
19:26 40.8 °F /  4.9 °C 38.5 °F /  3.6 °C 29.9in /  1013.5hPa WNW 4mph /  6.4km/h 5mph /  8km/h 91% 0in /  0.0mm 0 W/m2
19:31 40.6 °F /  4.8 °C 38.3 °F /  3.5 °C 29.9in /  1013.9hPa WNW 4mph /  6.4km/h 7mph /  11.3km/h 91% 0in /  0.0mm 0 W/m2
19:36 40.6 °F /  4.8 °C 38.3 °F /  3.5 °C 29.9in /  1013.9hPa WSW 2.9mph /  4.7km/h 4mph /  6.4km/h 91% 0in /  0.0mm 0 W/m2
19:41 40.3 °F /  4.6 °C 37.9 °F /  3.3 °C 30in /  1014.2hPa West 2mph /  3.2km/h 6mph /  9.7km/h 91% 0in /  0.0mm 0 W/m2
19:46 39.9 °F /  4.4 °C 37.6 °F /  3.1 °C 30in /  1014.2hPa WNW 4.9mph /  7.9km/h 7mph /  11.3km/h 91% 0in /  0.0mm 0 W/m2
19:51 39.7 °F /  4.3 °C 37.4 °F /  3 °C 30in /  1014.2hPa WNW 2mph /  3.2km/h 4mph /  6.4km/h 91% 0in /  0.0mm 0 W/m2
19:56 39.6 °F /  4.2 °C 37.2 °F /  2.9 °C 30in /  1014.6hPa Calm   6mph /  9.7km/h 91% 0in /  0.0mm 0 W/m2
20:01 39.6 °F /  4.2 °C 37.2 °F /  2.9 °C 30in /  1014.6hPa WNW 2mph /  3.2km/h 2mph /  3.2km/h 91% 0in /  0.0mm 0 W/m2
20:06 39.2 °F /  4 °C 36.9 °F /  2.7 °C 30in /  1014.6hPa WNW 2mph /  3.2km/h 3mph /  4.8km/h 91% 0in /  0.0mm 0 W/m2
20:11 39 °F /  3.9 °C 36.9 °F /  2.7 °C 30in /  1014.6hPa West 2.9mph /  4.7km/h 7mph /  11.3km/h 92% 0in /  0.0mm 0 W/m2
20:16 38.8 °F /  3.8 °C 36.7 °F /  2.6 °C 30in /  1014.9hPa WSW 2mph /  3.2km/h 6mph /  9.7km/h 92% 0in /  0.0mm 0 W/m2
20:21 38.8 °F /  3.8 °C 36.7 °F /  2.6 °C 30in /  1014.9hPa WNW 0.9mph /  1.4km/h 5mph /  8km/h 92% 0in /  0.0mm 0 W/m2
20:26 39 °F /  3.9 °C 36.9 °F /  2.7 °C 30in /  1015.2hPa WNW 2.9mph /  4.7km/h 7mph /  11.3km/h 92% 0in /  0.0mm 0 W/m2
20:31 39 °F /  3.9 °C 36.7 °F /  2.6 °C 30in /  1015.2hPa WNW 2.9mph /  4.7km/h 4mph /  6.4km/h 91% 0in /  0.0mm 0 W/m2
20:36 39 °F /  3.9 °C 36.7 °F /  2.6 °C 30in /  1015.2hPa WSW 2.9mph /  4.7km/h 4mph /  6.4km/h 91% 0in /  0.0mm 0 W/m2
20:41 39 °F /  3.9 °C 36.7 °F /  2.6 °C 30in /  1015.2hPa WSW 4mph /  6.4km/h 4mph /  6.4km/h 91% 0in /  0.0mm 0 W/m2
20:46 39 °F /  3.9 °C 36.3 °F /  2.4 °C 30in /  1015.2hPa NW 2.9mph /  4.7km/h 7mph /  11.3km/h 90% 0in /  0.0mm 0 W/m2
20:51 39 °F /  3.9 °C 36.3 °F /  2.4 °C 30in /  1015.6hPa West 6mph /  9.7km/h 6mph /  9.7km/h 90% 0in /  0.0mm 0 W/m2
20:56 38.8 °F /  3.8 °C 35.6 °F /  2 °C 30in /  1015.6hPa West 2.9mph /  4.7km/h 7mph /  11.3km/h 88% 0in /  0.0mm 0 W/m2
21:01 38.8 °F /  3.8 °C 35.6 °F /  2 °C 30in /  1015.6hPa WNW 2mph /  3.2km/h 5mph /  8km/h 88% 0in /  0.0mm 0 W/m2
21:06 38.7 °F /  3.7 °C 35.4 °F /  1.9 °C 30in /  1015.9hPa West 2.9mph /  4.7km/h 4mph /  6.4km/h 88% 0in /  0.0mm 0 W/m2
21:11 38.1 °F /  3.4 °C 34.9 °F /  1.6 °C 30in /  1015.9hPa WNW 2.9mph /  4.7km/h 7mph /  11.3km/h 88% 0in /  0.0mm 0 W/m2
21:16 37.8 °F /  3.2 °C 34.5 °F /  1.4 °C 30in /  1015.9hPa West 2.9mph /  4.7km/h 4mph /  6.4km/h 88% 0in /  0.0mm 0 W/m2
21:21 37.4 °F /  3 °C 34.2 °F /  1.2 °C 30in /  1015.9hPa WNW 4mph /  6.4km/h 7mph /  11.3km/h 88% 0in /  0.0mm 0 W/m2
21:26 37 °F /  2.8 °C 34.2 °F /  1.2 °C 30in /  1016.3hPa West 2mph /  3.2km/h 4mph /  6.4km/h 89% 0in /  0.0mm 0 W/m2
21:31 36.7 °F /  2.6 °C 33.8 °F /  1 °C 30in /  1015.9hPa West 2mph /  3.2km/h 4mph /  6.4km/h 89% 0in /  0.0mm 0 W/m2
21:36 36.3 °F /  2.4 °C 33.6 °F /  0.9 °C 30in /  1016.3hPa WNW 2mph /  3.2km/h 3mph /  4.8km/h 90% 0in /  0.0mm 0 W/m2
21:41 36.1 °F /  2.3 °C 33.3 °F /  0.7 °C 30in /  1016.3hPa West 2.9mph /  4.7km/h 4mph /  6.4km/h 89% 0in /  0.0mm 0 W/m2
21:46 36.1 °F /  2.3 °C 33.4 °F /  0.8 °C 30in /  1016.3hPa West 4mph /  6.4km/h 4mph /  6.4km/h 90% 0in /  0.0mm 0 W/m2
21:51 36 °F /  2.2 °C 33.1 °F /  0.6 °C 30in /  1016.3hPa West 2.9mph /  4.7km/h 3mph /  4.8km/h 89% 0in /  0.0mm 0 W/m2
21:56 36 °F /  2.2 °C 33.1 °F /  0.6 °C 30in /  1016.3hPa West 2.9mph /  4.7km/h 4mph /  6.4km/h 89% 0in /  0.0mm 0 W/m2
22:01 36 °F /  2.2 °C 32.7 °F /  0.4 °C 30in /  1016.6hPa West 2mph /  3.2km/h 4mph /  6.4km/h 88% 0in /  0.0mm 0 W/m2
22:06 36 °F /  2.2 °C 32.7 °F /  0.4 °C 30in /  1016.6hPa West 2mph /  3.2km/h 4mph /  6.4km/h 88% 0in /  0.0mm 0 W/m2
22:11 35.6 °F /  2 °C 32.7 °F /  0.4 °C 30in /  1016.6hPa WNW 2.9mph /  4.7km/h 5mph /  8km/h 89% 0in /  0.0mm 0 W/m2
22:16 35.4 °F /  1.9 °C 32.5 °F /  0.3 °C 30in /  1016.6hPa West 2.9mph /  4.7km/h 8mph /  12.9km/h 89% 0in /  0.0mm 0 W/m2
22:21 35.6 °F /  2 °C 32.4 °F /  0.2 °C 30in /  1016.9hPa West 4mph /  6.4km/h 7mph /  11.3km/h 88% 0in /  0.0mm 0 W/m2
22:26 36 °F /  2.2 °C 32.5 °F /  0.3 °C 30in /  1016.9hPa West 4mph /  6.4km/h 8mph /  12.9km/h 87% 0in /  0.0mm 0 W/m2
22:31 36.1 °F /  2.3 °C 32.7 °F /  0.4 °C 30in /  1016.9hPa WNW 4mph /  6.4km/h 8mph /  12.9km/h 87% 0in /  0.0mm 0 W/m2
22:36 36.3 °F /  2.4 °C 32.5 °F /  0.3 °C 30in /  1016.9hPa WNW 2.9mph /  4.7km/h 7mph /  11.3km/h 86% 0in /  0.0mm 0 W/m2
22:41 36.1 °F /  2.3 °C 32.4 °F /  0.2 °C 30in /  1016.9hPa West 6mph /  9.7km/h 8mph /  12.9km/h 86% 0in /  0.0mm 0 W/m2
22:46 36 °F /  2.2 °C 32.5 °F /  0.3 °C 30in /  1017.3hPa WNW 2.9mph /  4.7km/h 6mph /  9.7km/h 87% 0in /  0.0mm 0 W/m2
22:51 36 °F /  2.2 °C 32.5 °F /  0.3 °C 30in /  1017.3hPa WSW 4mph /  6.4km/h 7mph /  11.3km/h 87% 0in /  0.0mm 0 W/m2
22:56 35.6 °F /  2 °C 32.2 °F /  0.1 °C 30in /  1017.3hPa West 6.9mph /  11.1km/h 7mph /  11.3km/h 87% 0in /  0.0mm 0 W/m2
23:01 35.8 °F /  2.1 °C 32.4 °F /  0.2 °C 30in /  1017.3hPa WNW 4.9mph /  7.9km/h 12mph /  19.3km/h 87% 0in /  0.0mm 0 W/m2
23:06 36.1 °F /  2.3 °C 32.4 °F /  0.2 °C 30in /  1017.3hPa West 4mph /  6.4km/h 8mph /  12.9km/h 86% 0in /  0.0mm 0 W/m2
23:11 36.1 °F /  2.3 °C 32.4 °F /  0.2 °C 30in /  1017.3hPa WNW 6.9mph /  11.1km/h 12mph /  19.3km/h 86% 0in /  0.0mm 0 W/m2
23:16 36.3 °F /  2.4 °C 32.5 °F /  0.3 °C 30in /  1017.3hPa West 6mph /  9.7km/h 9mph /  14.5km/h 86% 0in /  0.0mm 0 W/m2
23:21 36.3 °F /  2.4 °C 32.5 °F /  0.3 °C 30in /  1017.3hPa WSW 4.9mph /  7.9km/h 6mph /  9.7km/h 86% 0in /  0.0mm 0 W/m2
23:26 36.1 °F /  2.3 °C 32.4 °F /  0.2 °C 30in /  1017.3hPa WNW 4.9mph /  7.9km/h 8mph /  12.9km/h 86% 0in /  0.0mm 0 W/m2
23:31 36.1 °F /  2.3 °C 32.4 °F /  0.2 °C 30in /  1017.3hPa WNW 6mph /  9.7km/h 8mph /  12.9km/h 86% 0in /  0.0mm 0 W/m2
23:36 36 °F /  2.2 °C 32.2 °F /  0.1 °C 30in /  1017.3hPa NW 4.9mph /  7.9km/h 9mph /  14.5km/h 86% 0in /  0.0mm 0 W/m2
23:41 36 °F /  2.2 °C 32.2 °F /  0.1 °C 30.1in /  1017.6hPa WSW 4.9mph /  7.9km/h 8mph /  12.9km/h 86% 0in /  0.0mm 0 W/m2
23:46 36 °F /  2.2 °C 32.5 °F /  0.3 °C 30.1in /  1017.6hPa West 2.9mph /  4.7km/h 9mph /  14.5km/h 87% 0in /  0.0mm 0 W/m2
23:51 36 °F /  2.2 °C 32.5 °F /  0.3 °C 30.1in /  1017.6hPa West 2.9mph /  4.7km/h 6mph /  9.7km/h 87% 0in /  0.0mm 0 W/m2
23:56 35.8 °F /  2.1 °C 32.4 °F /  0.2 °C 30.1in /  1017.6hPa West 6.9mph /  11.1km/h 9mph /  14.5km/h 87% 0in /  0.0mm 0 W/m2
Juneau County Weather
Compliments of Weather Underground - 4 mb